sensor_id;sensor_type;location;lat;lon;timestamp;P1;durP1;ratioP1;P2;durP2;ratioP2
40150;SDS011;25866;52.420;10.640;2023-06-22T00:02:17;10.90;;;9.80;;
40150;SDS011;25866;52.420;10.640;2023-06-22T00:04:43;12.15;;;10.95;;
40150;SDS011;25866;52.420;10.640;2023-06-22T00:07:09;16.42;;;12.05;;
40150;SDS011;25866;52.420;10.640;2023-06-22T00:09:36;13.00;;;11.80;;
40150;SDS011;25866;52.420;10.640;2023-06-22T00:12:02;13.85;;;11.73;;
40150;SDS011;25866;52.420;10.640;2023-06-22T00:14:29;14.95;;;12.60;;
40150;SDS011;25866;52.420;10.640;2023-06-22T00:16:54;12.90;;;11.60;;
40150;SDS011;25866;52.420;10.640;2023-06-22T00:19:22;12.50;;;11.30;;
40150;SDS011;25866;52.420;10.640;2023-06-22T00:21:49;13.75;;;12.25;;
40150;SDS011;25866;52.420;10.640;2023-06-22T00:24:20;13.43;;;12.20;;
40150;SDS011;25866;52.420;10.640;2023-06-22T00:26:47;15.07;;;11.38;;
40150;SDS011;25866;52.420;10.640;2023-06-22T00:29:14;13.55;;;12.00;;
40150;SDS011;25866;52.420;10.640;2023-06-22T00:31:43;12.27;;;11.07;;
40150;SDS011;25866;52.420;10.640;2023-06-22T00:34:09;13.25;;;11.75;;
40150;SDS011;25866;52.420;10.640;2023-06-22T00:36:35;13.27;;;11.73;;
40150;SDS011;25866;52.420;10.640;2023-06-22T00:39:01;12.90;;;11.70;;
40150;SDS011;25866;52.420;10.640;2023-06-22T00:41:27;12.57;;;11.38;;
40150;SDS011;25866;52.420;10.640;2023-06-22T00:43:55;13.75;;;12.07;;
40150;SDS011;25866;52.420;10.640;2023-06-22T00:46:21;13.05;;;11.50;;
40150;SDS011;25866;52.420;10.640;2023-06-22T00:48:48;13.10;;;11.13;;
40150;SDS011;25866;52.420;10.640;2023-06-22T00:51:15;12.40;;;11.00;;
40150;SDS011;25866;52.420;10.640;2023-06-22T00:53:42;11.98;;;10.77;;
40150;SDS011;25866;52.420;10.640;2023-06-22T00:56:08;12.25;;;10.93;;
40150;SDS011;25866;52.420;10.640;2023-06-22T00:58:37;12.40;;;11.15;;
40150;SDS011;25866;52.420;10.640;2023-06-22T01:01:06;16.50;;;12.15;;
40150;SDS011;25866;52.420;10.640;2023-06-22T01:03:33;13.50;;;10.85;;
40150;SDS011;25866;52.420;10.640;2023-06-22T01:06:02;12.35;;;11.00;;
40150;SDS011;25866;52.420;10.640;2023-06-22T01:08:46;11.90;;;10.70;;
40150;SDS011;25866;52.420;10.640;2023-06-22T01:11:37;12.18;;;10.65;;
40150;SDS011;25866;52.420;10.640;2023-06-22T01:14:33;11.05;;;9.98;;
40150;SDS011;25866;52.420;10.640;2023-06-22T01:17:10;11.27;;;9.85;;
40150;SDS011;25866;52.420;10.640;2023-06-22T01:19:45;12.18;;;10.90;;
40150;SDS011;25866;52.420;10.640;2023-06-22T01:22:15;12.30;;;10.68;;
40150;SDS011;25866;52.420;10.640;2023-06-22T01:24:53;11.10;;;10.10;;
40150;SDS011;25866;52.420;10.640;2023-06-22T01:30:06;11.45;;;10.35;;
40150;SDS011;25866;52.420;10.640;2023-06-22T01:32:35;11.85;;;10.65;;
40150;SDS011;25866;52.420;10.640;2023-06-22T01:35:04;15.07;;;12.00;;
40150;SDS011;25866;52.420;10.640;2023-06-22T01:37:34;12.27;;;10.98;;
40150;SDS011;25866;52.420;10.640;2023-06-22T01:40:02;12.07;;;10.85;;
40150;SDS011;25866;52.420;10.640;2023-06-22T01:42:31;11.98;;;10.40;;
40150;SDS011;25866;52.420;10.640;2023-06-22T01:44:59;11.95;;;10.85;;
40150;SDS011;25866;52.420;10.640;2023-06-22T01:47:25;11.32;;;10.20;;
40150;SDS011;25866;52.420;10.640;2023-06-22T01:49:53;12.13;;;10.93;;
40150;SDS011;25866;52.420;10.640;2023-06-22T01:52:20;12.32;;;11.02;;
40150;SDS011;25866;52.420;10.640;2023-06-22T01:54:47;12.38;;;10.80;;
40150;SDS011;25866;52.420;10.640;2023-06-22T01:57:13;12.55;;;10.50;;
40150;SDS011;25866;52.420;10.640;2023-06-22T01:59:58;13.57;;;10.65;;
40150;SDS011;25866;52.420;10.640;2023-06-22T02:02:37;12.00;;;10.88;;
40150;SDS011;25866;52.420;10.640;2023-06-22T02:05:09;12.10;;;10.90;;
40150;SDS011;25866;52.420;10.640;2023-06-22T02:08:00;16.05;;;11.00;;
40150;SDS011;25866;52.420;10.640;2023-06-22T02:10:34;12.35;;;10.60;;
40150;SDS011;25866;52.420;10.640;2023-06-22T02:13:04;12.55;;;11.10;;
40150;SDS011;25866;52.420;10.640;2023-06-22T02:15:32;14.23;;;10.13;;
40150;SDS011;25866;52.420;10.640;2023-06-22T02:17:59;11.43;;;10.25;;
40150;SDS011;25866;52.420;10.640;2023-06-22T02:20:25;11.85;;;10.57;;
40150;SDS011;25866;52.420;10.640;2023-06-22T02:22:51;11.40;;;10.27;;
40150;SDS011;25866;52.420;10.640;2023-06-22T02:25:17;12.23;;;10.63;;
40150;SDS011;25866;52.420;10.640;2023-06-22T02:27:45;11.57;;;10.38;;
40150;SDS011;25866;52.420;10.640;2023-06-22T02:30:12;19.10;;;14.20;;
40150;SDS011;25866;52.420;10.640;2023-06-22T02:32:40;12.77;;;11.38;;
40150;SDS011;25866;52.420;10.640;2023-06-22T02:35:06;11.88;;;10.68;;
40150;SDS011;25866;52.420;10.640;2023-06-22T02:37:37;12.38;;;11.10;;
40150;SDS011;25866;52.420;10.640;2023-06-22T02:40:08;12.75;;;11.23;;
40150;SDS011;25866;52.420;10.640;2023-06-22T02:42:35;14.40;;;10.73;;
40150;SDS011;25866;52.420;10.640;2023-06-22T02:45:05;12.02;;;10.20;;
40150;SDS011;25866;52.420;10.640;2023-06-22T02:47:32;12.50;;;10.80;;
40150;SDS011;25866;52.420;10.640;2023-06-22T02:49:58;11.88;;;10.35;;
40150;SDS011;25866;52.420;10.640;2023-06-22T02:52:23;12.77;;;10.35;;
40150;SDS011;25866;52.420;10.640;2023-06-22T02:54:49;11.93;;;9.88;;
40150;SDS011;25866;52.420;10.640;2023-06-22T02:57:15;13.60;;;10.52;;
40150;SDS011;25866;52.420;10.640;2023-06-22T02:59:41;13.20;;;9.98;;
40150;SDS011;25866;52.420;10.640;2023-06-22T03:02:07;10.75;;;9.60;;
40150;SDS011;25866;52.420;10.640;2023-06-22T03:04:34;12.60;;;9.43;;
40150;SDS011;25866;52.420;10.640;2023-06-22T03:07:00;11.27;;;9.50;;
40150;SDS011;25866;52.420;10.640;2023-06-22T03:09:27;12.80;;;9.68;;
40150;SDS011;25866;52.420;10.640;2023-06-22T03:11:53;12.02;;;9.80;;
40150;SDS011;25866;52.420;10.640;2023-06-22T03:14:19;9.68;;;8.55;;
40150;SDS011;25866;52.420;10.640;2023-06-22T03:16:45;11.82;;;9.27;;
40150;SDS011;25866;52.420;10.640;2023-06-22T03:19:11;11.23;;;9.30;;
40150;SDS011;25866;52.420;10.640;2023-06-22T03:21:38;12.40;;;9.52;;
40150;SDS011;25866;52.420;10.640;2023-06-22T03:24:08;11.65;;;10.45;;
40150;SDS011;25866;52.420;10.640;2023-06-22T03:26:34;10.85;;;9.73;;
40150;SDS011;25866;52.420;10.640;2023-06-22T03:29:00;10.73;;;8.85;;
40150;SDS011;25866;52.420;10.640;2023-06-22T03:31:26;11.60;;;8.90;;
40150;SDS011;25866;52.420;10.640;2023-06-22T03:33:52;10.25;;;9.25;;
40150;SDS011;25866;52.420;10.640;2023-06-22T03:36:17;10.10;;;8.90;;
40150;SDS011;25866;52.420;10.640;2023-06-22T03:38:45;9.65;;;8.50;;
40150;SDS011;25866;52.420;10.640;2023-06-22T03:41:12;9.18;;;8.20;;
40150;SDS011;25866;52.420;10.640;2023-06-22T03:43:38;10.07;;;8.95;;
40150;SDS011;25866;52.420;10.640;2023-06-22T03:46:05;12.10;;;8.95;;
40150;SDS011;25866;52.420;10.640;2023-06-22T03:48:32;10.07;;;8.93;;
40150;SDS011;25866;52.420;10.640;2023-06-22T03:51:02;9.73;;;8.63;;
40150;SDS011;25866;52.420;10.640;2023-06-22T03:53:31;9.93;;;8.93;;
40150;SDS011;25866;52.420;10.640;2023-06-22T03:56:03;11.02;;;8.50;;
40150;SDS011;25866;52.420;10.640;2023-06-22T03:58:29;9.95;;;8.95;;
40150;SDS011;25866;52.420;10.640;2023-06-22T04:00:58;8.93;;;8.00;;
40150;SDS011;25866;52.420;10.640;2023-06-22T04:03:25;10.05;;;9.10;;
40150;SDS011;25866;52.420;10.640;2023-06-22T04:05:51;9.63;;;8.35;;
40150;SDS011;25866;52.420;10.640;2023-06-22T04:08:17;10.82;;;8.82;;
40150;SDS011;25866;52.420;10.640;2023-06-22T04:10:43;13.27;;;8.98;;
40150;SDS011;25866;52.420;10.640;2023-06-22T04:13:10;13.15;;;9.95;;
40150;SDS011;25866;52.420;10.640;2023-06-22T04:18:04;12.68;;;9.95;;
40150;SDS011;25866;52.420;10.640;2023-06-22T04:20:32;10.73;;;8.60;;
40150;SDS011;25866;52.420;10.640;2023-06-22T04:22:58;9.30;;;8.30;;
40150;SDS011;25866;52.420;10.640;2023-06-22T04:25:25;8.90;;;8.00;;
40150;SDS011;25866;52.420;10.640;2023-06-22T04:27:51;9.75;;;8.57;;
40150;SDS011;25866;52.420;10.640;2023-06-22T04:30:17;9.82;;;7.97;;
40150;SDS011;25866;52.420;10.640;2023-06-22T04:32:45;10.40;;;8.15;;
40150;SDS011;25866;52.420;10.640;2023-06-22T04:35:11;9.00;;;8.10;;
40150;SDS011;25866;52.420;10.640;2023-06-22T04:37:37;10.05;;;8.55;;
40150;SDS011;25866;52.420;10.640;2023-06-22T04:40:05;9.43;;;8.52;;
40150;SDS011;25866;52.420;10.640;2023-06-22T04:42:33;13.90;;;9.02;;
40150;SDS011;25866;52.420;10.640;2023-06-22T04:45:01;9.95;;;8.93;;
40150;SDS011;25866;52.420;10.640;2023-06-22T04:47:31;8.88;;;7.97;;
40150;SDS011;25866;52.420;10.640;2023-06-22T04:49:58;10.38;;;8.80;;
40150;SDS011;25866;52.420;10.640;2023-06-22T04:52:28;10.82;;;8.88;;
40150;SDS011;25866;52.420;10.640;2023-06-22T04:54:54;10.52;;;8.30;;
40150;SDS011;25866;52.420;10.640;2023-06-22T04:57:22;10.02;;;7.55;;
40150;SDS011;25866;52.420;10.640;2023-06-22T04:59:55;9.05;;;8.15;;
40150;SDS011;25866;52.420;10.640;2023-06-22T05:02:23;9.30;;;8.38;;
40150;SDS011;25866;52.420;10.640;2023-06-22T05:04:52;8.35;;;7.53;;
40150;SDS011;25866;52.420;10.640;2023-06-22T05:07:29;11.48;;;8.45;;
40150;SDS011;25866;52.420;10.640;2023-06-22T05:09:54;9.38;;;7.00;;
40150;SDS011;25866;52.420;10.640;2023-06-22T05:12:21;10.10;;;7.68;;
40150;SDS011;25866;52.420;10.640;2023-06-22T05:14:47;9.20;;;7.47;;
40150;SDS011;25866;52.420;10.640;2023-06-22T05:17:21;8.93;;;7.22;;
40150;SDS011;25866;52.420;10.640;2023-06-22T05:22:16;9.15;;;7.22;;
40150;SDS011;25866;52.420;10.640;2023-06-22T05:24:42;10.38;;;7.00;;
40150;SDS011;25866;52.420;10.640;2023-06-22T05:27:11;7.30;;;6.60;;
40150;SDS011;25866;52.420;10.640;2023-06-22T05:29:39;7.82;;;6.57;;
40150;SDS011;25866;52.420;10.640;2023-06-22T05:32:12;11.10;;;6.25;;
40150;SDS011;25866;52.420;10.640;2023-06-22T05:37:09;8.15;;;6.25;;
40150;SDS011;25866;52.420;10.640;2023-06-22T05:39:35;6.88;;;6.00;;
40150;SDS011;25866;52.420;10.640;2023-06-22T05:42:05;7.13;;;6.43;;
40150;SDS011;25866;52.420;10.640;2023-06-22T05:44:32;8.85;;;6.45;;
40150;SDS011;25866;52.420;10.640;2023-06-22T05:46:58;7.85;;;6.07;;
40150;SDS011;25866;52.420;10.640;2023-06-22T05:49:24;6.43;;;5.78;;
40150;SDS011;25866;52.420;10.640;2023-06-22T05:51:55;6.75;;;6.00;;
40150;SDS011;25866;52.420;10.640;2023-06-22T05:54:22;7.78;;;6.40;;
40150;SDS011;25866;52.420;10.640;2023-06-22T05:56:47;7.68;;;6.05;;
40150;SDS011;25866;52.420;10.640;2023-06-22T05:59:13;11.27;;;5.97;;
40150;SDS011;25866;52.420;10.640;2023-06-22T06:01:41;9.65;;;5.53;;
40150;SDS011;25866;52.420;10.640;2023-06-22T06:04:07;10.50;;;6.40;;
40150;SDS011;25866;52.420;10.640;2023-06-22T06:06:35;10.50;;;6.40;;
40150;SDS011;25866;52.420;10.640;2023-06-22T06:09:03;9.02;;;5.80;;
40150;SDS011;25866;52.420;10.640;2023-06-22T06:11:29;8.68;;;5.95;;
40150;SDS011;25866;52.420;10.640;2023-06-22T06:13:55;8.68;;;6.53;;
40150;SDS011;25866;52.420;10.640;2023-06-22T06:16:21;6.53;;;5.75;;
40150;SDS011;25866;52.420;10.640;2023-06-22T06:18:47;16.52;;;6.90;;
40150;SDS011;25866;52.420;10.640;2023-06-22T06:21:16;10.80;;;5.90;;
40150;SDS011;25866;52.420;10.640;2023-06-22T06:23:42;11.85;;;6.15;;
40150;SDS011;25866;52.420;10.640;2023-06-22T06:26:08;10.23;;;6.75;;
40150;SDS011;25866;52.420;10.640;2023-06-22T06:28:34;9.32;;;6.70;;
40150;SDS011;25866;52.420;10.640;2023-06-22T06:31:00;8.32;;;6.47;;
40150;SDS011;25866;52.420;10.640;2023-06-22T06:33:26;8.73;;;6.00;;
40150;SDS011;25866;52.420;10.640;2023-06-22T06:35:52;9.40;;;6.55;;
40150;SDS011;25866;52.420;10.640;2023-06-22T06:38:18;9.63;;;5.97;;
40150;SDS011;25866;52.420;10.640;2023-06-22T06:40:44;9.02;;;6.53;;
40150;SDS011;25866;52.420;10.640;2023-06-22T06:43:10;8.50;;;6.25;;
40150;SDS011;25866;52.420;10.640;2023-06-22T06:45:36;8.27;;;6.10;;
40150;SDS011;25866;52.420;10.640;2023-06-22T06:48:01;10.98;;;6.00;;
40150;SDS011;25866;52.420;10.640;2023-06-22T06:50:27;9.15;;;5.90;;
40150;SDS011;25866;52.420;10.640;2023-06-22T06:52:53;8.65;;;5.80;;
40150;SDS011;25866;52.420;10.640;2023-06-22T06:55:19;8.70;;;6.00;;
40150;SDS011;25866;52.420;10.640;2023-06-22T06:57:46;10.00;;;6.00;;
40150;SDS011;25866;52.420;10.640;2023-06-22T07:00:15;7.88;;;5.70;;
40150;SDS011;25866;52.420;10.640;2023-06-22T07:02:43;8.30;;;6.40;;
40150;SDS011;25866;52.420;10.640;2023-06-22T07:05:12;7.45;;;5.68;;
40150;SDS011;25866;52.420;10.640;2023-06-22T07:07:39;8.00;;;5.75;;
40150;SDS011;25866;52.420;10.640;2023-06-22T07:10:06;8.45;;;6.00;;
40150;SDS011;25866;52.420;10.640;2023-06-22T07:12:34;7.90;;;6.30;;
40150;SDS011;25866;52.420;10.640;2023-06-22T07:15:03;8.30;;;5.80;;
40150;SDS011;25866;52.420;10.640;2023-06-22T07:17:31;6.50;;;5.72;;
40150;SDS011;25866;52.420;10.640;2023-06-22T07:19:57;10.52;;;6.10;;
40150;SDS011;25866;52.420;10.640;2023-06-22T07:22:23;8.57;;;6.05;;
40150;SDS011;25866;52.420;10.640;2023-06-22T07:24:51;12.70;;;6.32;;
40150;SDS011;25866;52.420;10.640;2023-06-22T07:27:18;9.20;;;7.22;;
40150;SDS011;25866;52.420;10.640;2023-06-22T07:29:55;9.38;;;6.10;;
40150;SDS011;25866;52.420;10.640;2023-06-22T07:32:35;7.40;;;5.90;;
40150;SDS011;25866;52.420;10.640;2023-06-22T07:35:02;9.07;;;5.88;;
40150;SDS011;25866;52.420;10.640;2023-06-22T07:37:28;7.93;;;6.20;;
40150;SDS011;25866;52.420;10.640;2023-06-22T07:39:54;9.20;;;5.68;;
40150;SDS011;25866;52.420;10.640;2023-06-22T07:42:24;8.48;;;6.00;;
40150;SDS011;25866;52.420;10.640;2023-06-22T07:44:51;6.68;;;5.53;;
40150;SDS011;25866;52.420;10.640;2023-06-22T07:47:17;10.88;;;6.10;;
40150;SDS011;25866;52.420;10.640;2023-06-22T07:49:44;9.77;;;5.70;;
40150;SDS011;25866;52.420;10.640;2023-06-22T07:52:11;8.32;;;5.78;;
40150;SDS011;25866;52.420;10.640;2023-06-22T07:54:37;11.13;;;6.00;;
40150;SDS011;25866;52.420;10.640;2023-06-22T07:57:03;7.57;;;6.40;;
40150;SDS011;25866;52.420;10.640;2023-06-22T07:59:30;8.52;;;5.85;;
40150;SDS011;25866;52.420;10.640;2023-06-22T08:01:55;8.80;;;6.55;;
40150;SDS011;25866;52.420;10.640;2023-06-22T08:04:21;9.13;;;6.90;;
40150;SDS011;25866;52.420;10.640;2023-06-22T08:06:47;10.27;;;7.15;;
40150;SDS011;25866;52.420;10.640;2023-06-22T08:09:14;10.52;;;7.22;;
40150;SDS011;25866;52.420;10.640;2023-06-22T08:11:40;8.77;;;7.63;;
40150;SDS011;25866;52.420;10.640;2023-06-22T08:14:06;9.05;;;7.85;;
40150;SDS011;25866;52.420;10.640;2023-06-22T08:16:34;10.35;;;7.22;;
40150;SDS011;25866;52.420;10.640;2023-06-22T08:19:00;8.88;;;7.75;;
40150;SDS011;25866;52.420;10.640;2023-06-22T08:21:26;8.88;;;7.90;;
40150;SDS011;25866;52.420;10.640;2023-06-22T08:23:51;9.80;;;8.02;;
40150;SDS011;25866;52.420;10.640;2023-06-22T08:26:17;9.90;;;8.20;;
40150;SDS011;25866;52.420;10.640;2023-06-22T08:28:43;10.27;;;7.97;;
40150;SDS011;25866;52.420;10.640;2023-06-22T08:31:09;9.40;;;8.43;;
40150;SDS011;25866;52.420;10.640;2023-06-22T08:33:37;13.23;;;7.88;;
40150;SDS011;25866;52.420;10.640;2023-06-22T08:36:04;8.60;;;7.80;;
40150;SDS011;25866;52.420;10.640;2023-06-22T08:38:31;8.30;;;7.45;;
40150;SDS011;25866;52.420;10.640;2023-06-22T08:41:00;8.77;;;7.97;;
40150;SDS011;25866;52.420;10.640;2023-06-22T08:43:27;9.45;;;8.32;;
40150;SDS011;25866;52.420;10.640;2023-06-22T08:45:52;9.75;;;8.68;;
40150;SDS011;25866;52.420;10.640;2023-06-22T08:48:18;9.15;;;8.27;;
40150;SDS011;25866;52.420;10.640;2023-06-22T08:50:45;10.85;;;8.35;;
40150;SDS011;25866;52.420;10.640;2023-06-22T08:53:11;9.52;;;8.52;;
40150;SDS011;25866;52.420;10.640;2023-06-22T08:55:37;8.90;;;8.00;;
40150;SDS011;25866;52.420;10.640;2023-06-22T08:58:02;9.45;;;8.50;;
40150;SDS011;25866;52.420;10.640;2023-06-22T09:00:29;9.40;;;8.50;;
40150;SDS011;25866;52.420;10.640;2023-06-22T09:02:57;12.80;;;8.88;;
40150;SDS011;25866;52.420;10.640;2023-06-22T09:05:25;9.25;;;8.27;;
40150;SDS011;25866;52.420;10.640;2023-06-22T09:07:56;9.63;;;8.45;;
40150;SDS011;25866;52.420;10.640;2023-06-22T09:10:25;9.77;;;8.77;;
40150;SDS011;25866;52.420;10.640;2023-06-22T09:12:51;10.00;;;9.00;;
40150;SDS011;25866;52.420;10.640;2023-06-22T09:15:17;10.88;;;9.07;;
40150;SDS011;25866;52.420;10.640;2023-06-22T09:17:44;11.50;;;9.13;;
40150;SDS011;25866;52.420;10.640;2023-06-22T09:20:11;10.93;;;9.40;;
40150;SDS011;25866;52.420;10.640;2023-06-22T09:22:37;11.25;;;9.27;;
40150;SDS011;25866;52.420;10.640;2023-06-22T09:25:04;12.55;;;9.18;;
40150;SDS011;25866;52.420;10.640;2023-06-22T09:27:30;9.82;;;8.82;;
40150;SDS011;25866;52.420;10.640;2023-06-22T09:29:56;12.93;;;9.18;;
40150;SDS011;25866;52.420;10.640;2023-06-22T09:32:23;9.80;;;8.80;;
40150;SDS011;25866;52.420;10.640;2023-06-22T09:34:50;11.18;;;8.85;;
40150;SDS011;25866;52.420;10.640;2023-06-22T09:37:16;11.05;;;9.30;;
40150;SDS011;25866;52.420;10.640;2023-06-22T09:39:42;10.18;;;9.20;;
40150;SDS011;25866;52.420;10.640;2023-06-22T09:42:08;10.40;;;8.80;;
40150;SDS011;25866;52.420;10.640;2023-06-22T09:44:34;9.68;;;8.77;;
40150;SDS011;25866;52.420;10.640;2023-06-22T09:46:59;8.70;;;7.90;;
40150;SDS011;25866;52.420;10.640;2023-06-22T09:49:25;13.07;;;9.05;;
40150;SDS011;25866;52.420;10.640;2023-06-22T09:51:51;9.52;;;8.45;;
40150;SDS011;25866;52.420;10.640;2023-06-22T09:54:17;9.80;;;8.23;;
40150;SDS011;25866;52.420;10.640;2023-06-22T09:56:44;9.10;;;8.20;;
40150;SDS011;25866;52.420;10.640;2023-06-22T09:59:10;9.35;;;8.25;;
40150;SDS011;25866;52.420;10.640;2023-06-22T10:01:35;11.60;;;8.30;;
40150;SDS011;25866;52.420;10.640;2023-06-22T10:04:02;9.23;;;8.15;;
40150;SDS011;25866;52.420;10.640;2023-06-22T10:06:28;11.13;;;9.10;;
40150;SDS011;25866;52.420;10.640;2023-06-22T10:08:53;10.80;;;8.75;;
40150;SDS011;25866;52.420;10.640;2023-06-22T10:11:19;9.20;;;8.32;;
40150;SDS011;25866;52.420;10.640;2023-06-22T10:13:45;10.65;;;9.65;;
40150;SDS011;25866;52.420;10.640;2023-06-22T10:16:11;8.98;;;8.18;;
40150;SDS011;25866;52.420;10.640;2023-06-22T10:18:37;10.77;;;8.60;;
40150;SDS011;25866;52.420;10.640;2023-06-22T10:21:02;11.77;;;9.18;;
40150;SDS011;25866;52.420;10.640;2023-06-22T10:23:28;10.50;;;7.88;;
40150;SDS011;25866;52.420;10.640;2023-06-22T10:25:54;9.57;;;8.40;;
40150;SDS011;25866;52.420;10.640;2023-06-22T10:28:23;9.45;;;8.55;;
40150;SDS011;25866;52.420;10.640;2023-06-22T10:30:48;9.32;;;8.32;;
40150;SDS011;25866;52.420;10.640;2023-06-22T10:33:18;8.50;;;7.65;;
40150;SDS011;25866;52.420;10.640;2023-06-22T10:35:51;8.25;;;7.55;;
40150;SDS011;25866;52.420;10.640;2023-06-22T10:38:26;8.80;;;7.95;;
40150;SDS011;25866;52.420;10.640;2023-06-22T10:40:52;10.55;;;8.80;;
40150;SDS011;25866;52.420;10.640;2023-06-22T10:43:18;9.13;;;8.23;;
40150;SDS011;25866;52.420;10.640;2023-06-22T10:48:13;11.05;;;9.23;;
40150;SDS011;25866;52.420;10.640;2023-06-22T10:50:39;9.77;;;8.85;;
40150;SDS011;25866;52.420;10.640;2023-06-22T10:53:05;10.55;;;8.52;;
40150;SDS011;25866;52.420;10.640;2023-06-22T10:55:31;10.13;;;8.60;;
40150;SDS011;25866;52.420;10.640;2023-06-22T10:57:56;8.20;;;7.40;;
40150;SDS011;25866;52.420;10.640;2023-06-22T11:00:22;9.52;;;8.52;;
40150;SDS011;25866;52.420;10.640;2023-06-22T11:02:48;8.60;;;7.80;;
40150;SDS011;25866;52.420;10.640;2023-06-22T11:05:14;9.35;;;7.80;;
40150;SDS011;25866;52.420;10.640;2023-06-22T11:07:43;13.88;;;8.43;;
40150;SDS011;25866;52.420;10.640;2023-06-22T11:10:09;9.07;;;8.07;;
40150;SDS011;25866;52.420;10.640;2023-06-22T11:12:37;10.30;;;8.15;;
40150;SDS011;25866;52.420;10.640;2023-06-22T11:15:03;8.23;;;7.20;;
40150;SDS011;25866;52.420;10.640;2023-06-22T11:17:29;8.02;;;7.22;;
40150;SDS011;25866;52.420;10.640;2023-06-22T11:19:55;10.55;;;7.57;;
40150;SDS011;25866;52.420;10.640;2023-06-22T11:22:21;8.80;;;7.60;;
40150;SDS011;25866;52.420;10.640;2023-06-22T11:24:46;9.15;;;8.25;;
40150;SDS011;25866;52.420;10.640;2023-06-22T11:27:13;8.88;;;7.97;;
40150;SDS011;25866;52.420;10.640;2023-06-22T11:32:23;14.02;;;9.25;;
40150;SDS011;25866;52.420;10.640;2023-06-22T11:34:51;12.25;;;9.35;;
40150;SDS011;25866;52.420;10.640;2023-06-22T11:37:20;11.20;;;9.25;;
40150;SDS011;25866;52.420;10.640;2023-06-22T11:39:46;10.13;;;9.10;;
40150;SDS011;25866;52.420;10.640;2023-06-22T11:42:14;10.95;;;8.63;;
40150;SDS011;25866;52.420;10.640;2023-06-22T11:44:50;10.07;;;9.15;;
40150;SDS011;25866;52.420;10.640;2023-06-22T11:47:25;9.40;;;8.50;;
40150;SDS011;25866;52.420;10.640;2023-06-22T11:49:50;12.93;;;9.15;;
40150;SDS011;25866;52.420;10.640;2023-06-22T11:52:16;9.75;;;8.73;;
40150;SDS011;25866;52.420;10.640;2023-06-22T11:54:43;9.40;;;8.50;;
40150;SDS011;25866;52.420;10.640;2023-06-22T11:57:09;11.98;;;9.65;;
40150;SDS011;25866;52.420;10.640;2023-06-22T11:59:34;10.18;;;8.75;;
40150;SDS011;25866;52.420;10.640;2023-06-22T12:02:00;10.63;;;9.60;;
40150;SDS011;25866;52.420;10.640;2023-06-22T12:04:28;11.32;;;8.98;;
40150;SDS011;25866;52.420;10.640;2023-06-22T12:07:06;9.43;;;8.40;;
40150;SDS011;25866;52.420;10.640;2023-06-22T12:09:44;9.30;;;8.35;;
40150;SDS011;25866;52.420;10.640;2023-06-22T12:14:58;8.27;;;6.65;;
40150;SDS011;25866;52.420;10.640;2023-06-22T12:17:28;10.07;;;7.25;;
40150;SDS011;25866;52.420;10.640;2023-06-22T12:20:00;11.38;;;7.03;;
40150;SDS011;25866;52.420;10.640;2023-06-22T12:22:27;8.63;;;6.93;;
40150;SDS011;25866;52.420;10.640;2023-06-22T12:24:56;8.65;;;6.72;;
40150;SDS011;25866;52.420;10.640;2023-06-22T12:27:22;7.88;;;6.70;;
40150;SDS011;25866;52.420;10.640;2023-06-22T12:29:50;7.65;;;6.93;;
40150;SDS011;25866;52.420;10.640;2023-06-22T12:32:16;9.43;;;6.65;;
40150;SDS011;25866;52.420;10.640;2023-06-22T12:34:43;7.60;;;6.90;;
40150;SDS011;25866;52.420;10.640;2023-06-22T12:37:17;7.15;;;6.45;;
40150;SDS011;25866;52.420;10.640;2023-06-22T12:39:44;7.50;;;6.57;;
40150;SDS011;25866;52.420;10.640;2023-06-22T12:42:10;7.40;;;6.60;;
40150;SDS011;25866;52.420;10.640;2023-06-22T12:44:44;9.73;;;6.72;;
40150;SDS011;25866;52.420;10.640;2023-06-22T12:47:18;7.57;;;6.88;;
40150;SDS011;25866;52.420;10.640;2023-06-22T12:49:45;8.68;;;6.65;;
40150;SDS011;25866;52.420;10.640;2023-06-22T12:52:11;8.30;;;7.03;;
40150;SDS011;25866;52.420;10.640;2023-06-22T12:54:36;7.90;;;7.18;;
40150;SDS011;25866;52.420;10.640;2023-06-22T12:57:02;8.23;;;6.72;;
40150;SDS011;25866;52.420;10.640;2023-06-22T12:59:28;8.27;;;7.07;;
40150;SDS011;25866;52.420;10.640;2023-06-22T13:01:54;7.30;;;6.60;;
40150;SDS011;25866;52.420;10.640;2023-06-22T13:04:20;7.95;;;7.15;;
40150;SDS011;25866;52.420;10.640;2023-06-22T13:06:46;7.60;;;6.80;;
40150;SDS011;25866;52.420;10.640;2023-06-22T13:09:13;7.68;;;6.97;;
40150;SDS011;25866;52.420;10.640;2023-06-22T13:11:39;7.38;;;6.50;;
40150;SDS011;25866;52.420;10.640;2023-06-22T13:14:05;7.45;;;6.75;;
40150;SDS011;25866;52.420;10.640;2023-06-22T13:16:30;7.38;;;6.72;;
40150;SDS011;25866;52.420;10.640;2023-06-22T13:18:56;9.98;;;7.00;;
40150;SDS011;25866;52.420;10.640;2023-06-22T13:21:22;8.45;;;7.10;;
40150;SDS011;25866;52.420;10.640;2023-06-22T13:23:48;7.30;;;6.60;;
40150;SDS011;25866;52.420;10.640;2023-06-22T13:26:14;7.63;;;6.35;;
40150;SDS011;25866;52.420;10.640;2023-06-22T13:28:40;8.48;;;6.78;;
40150;SDS011;25866;52.420;10.640;2023-06-22T13:31:06;8.75;;;6.93;;
40150;SDS011;25866;52.420;10.640;2023-06-22T13:33:32;7.35;;;6.55;;
40150;SDS011;25866;52.420;10.640;2023-06-22T13:35:57;6.88;;;6.18;;
40150;SDS011;25866;52.420;10.640;2023-06-22T13:38:23;7.20;;;6.15;;
40150;SDS011;25866;52.420;10.640;2023-06-22T13:40:49;7.05;;;6.20;;
40150;SDS011;25866;52.420;10.640;2023-06-22T13:43:15;7.80;;;6.65;;
40150;SDS011;25866;52.420;10.640;2023-06-22T13:45:41;7.22;;;6.05;;
40150;SDS011;25866;52.420;10.640;2023-06-22T13:48:08;7.72;;;6.20;;
40150;SDS011;25866;52.420;10.640;2023-06-22T13:50:35;7.25;;;6.53;;
40150;SDS011;25866;52.420;10.640;2023-06-22T13:55:37;12.40;;;6.28;;
40150;SDS011;25866;52.420;10.640;2023-06-22T13:58:03;7.05;;;6.38;;
40150;SDS011;25866;52.420;10.640;2023-06-22T14:00:28;6.88;;;6.15;;
40150;SDS011;25866;52.420;10.640;2023-06-22T14:02:54;7.93;;;6.22;;
40150;SDS011;25866;52.420;10.640;2023-06-22T14:05:20;7.43;;;6.70;;
40150;SDS011;25866;52.420;10.640;2023-06-22T14:07:46;7.63;;;5.93;;
40150;SDS011;25866;52.420;10.640;2023-06-22T14:10:11;7.28;;;6.57;;
40150;SDS011;25866;52.420;10.640;2023-06-22T14:12:37;7.10;;;6.50;;
40150;SDS011;25866;52.420;10.640;2023-06-22T14:15:03;7.78;;;6.75;;
40150;SDS011;25866;52.420;10.640;2023-06-22T14:17:30;8.20;;;6.38;;
40150;SDS011;25866;52.420;10.640;2023-06-22T14:19:55;6.53;;;5.85;;
40150;SDS011;25866;52.420;10.640;2023-06-22T14:22:21;8.90;;;6.70;;
40150;SDS011;25866;52.420;10.640;2023-06-22T14:24:48;8.10;;;6.07;;
40150;SDS011;25866;52.420;10.640;2023-06-22T14:27:14;7.30;;;6.50;;
40150;SDS011;25866;52.420;10.640;2023-06-22T14:29:40;8.40;;;6.43;;
40150;SDS011;25866;52.420;10.640;2023-06-22T14:32:06;6.75;;;6.05;;
40150;SDS011;25866;52.420;10.640;2023-06-22T14:34:33;6.50;;;5.90;;
40150;SDS011;25866;52.420;10.640;2023-06-22T14:37:01;10.00;;;6.95;;
40150;SDS011;25866;52.420;10.640;2023-06-22T14:39:28;8.02;;;5.80;;
40150;SDS011;25866;52.420;10.640;2023-06-22T14:41:54;7.30;;;6.53;;
40150;SDS011;25866;52.420;10.640;2023-06-22T14:44:20;7.32;;;5.95;;
40150;SDS011;25866;52.420;10.640;2023-06-22T14:46:46;6.90;;;6.20;;
40150;SDS011;25866;52.420;10.640;2023-06-22T14:49:12;6.55;;;5.85;;